Time;durP1;ratioP1;P1;durP2;ratioP2;P2;SDS_P1;SDS_P2;PMS_P1;PMS_P2;Temp;Humidity;BMP_temperature;BMP_pressure;BME280_temperature;BME280_humidity;BME280_pressure;Samples;Min_cycle;Max_cycle;Signal;HPM_P1;HPM_P2
2022/04/29 00:02:06;;;;;;;13.77;7.80;;;12.90;90.10;;;;;;4975761;28;20023;-68
2022/04/29 00:04:32;;;;;;;11.33;7.07;;;12.80;90.20;;;;;;4975684;28;20033;-68
2022/04/29 00:06:59;;;;;;;14.77;7.90;;;12.90;90.20;;;;;;4975738;28;20035;-67
2022/04/29 00:09:25;;;;;;;12.57;7.93;;;12.80;90.30;;;;;;4975589;28;20035;-67
2022/04/29 00:11:51;;;;;;;15.50;8.93;;;12.90;90.30;;;;;;4958141;28;20041;-68
2022/04/29 00:14:18;;;;;;;14.47;8.87;;;12.80;90.40;;;;;;4975415;28;20066;-67
2022/04/29 00:16:44;;;;;;;15.53;8.70;;;12.80;90.30;;;;;;4975271;28;20571;-67
2022/04/29 00:19:09;;;;;;;14.47;8.23;;;12.80;90.40;;;;;;4975573;28;20106;-68
2022/04/29 00:21:35;;;;;;;13.13;7.80;;;12.80;90.50;;;;;;4975280;28;20476;-67
2022/04/29 00:24:01;;;;;;;14.70;8.33;;;12.80;90.50;;;;;;4975338;28;20093;-67
2022/04/29 00:26:27;;;;;;;20.50;8.73;;;12.80;90.60;;;;;;4975147;28;20551;-67
2022/04/29 00:28:53;;;;;;;14.13;8.10;;;12.70;90.70;;;;;;4975192;28;20039;-68
2022/04/29 00:31:19;;;;;;;12.67;7.80;;;12.70;90.80;;;;;;4975249;28;20038;-67
2022/04/29 00:33:45;;;;;;;14.50;8.00;;;12.70;90.90;;;;;;4957797;28;20443;-67
2022/04/29 00:36:11;;;;;;;14.30;8.30;;;12.60;90.90;;;;;;4974974;28;20042;-68
2022/04/29 00:38:37;;;;;;;14.30;8.60;;;12.60;90.90;;;;;;4957519;28;20445;-67
2022/04/29 00:41:03;;;;;;;15.40;8.87;;;12.60;91.00;;;;;;4975071;28;20042;-68
2022/04/29 00:43:30;;;;;;;13.83;8.57;;;12.60;91.00;;;;;;4975012;28;20027;-68
2022/04/29 00:45:55;;;;;;;16.47;8.33;;;12.60;91.10;;;;;;4974878;28;20097;-67
2022/04/29 00:48:21;;;;;;;17.90;8.60;;;12.60;91.10;;;;;;4974599;28;20035;-67
2022/04/29 00:50:48;;;;;;;17.23;9.07;;;12.50;91.10;;;;;;4957475;28;20066;-68
2022/04/29 00:53:15;;;;;;;15.67;9.63;;;12.50;91.30;;;;;;4957535;28;20233;-68
2022/04/29 00:55:44;;;;;;;17.47;9.10;;;12.50;91.40;;;;;;4974747;28;20392;-67
2022/04/29 00:58:33;;;;;;;15.55;8.55;;;12.50;91.40;;;;;;4974565;28;20503;-67
2022/04/29 01:01:03;;;;;;;16.23;9.27;;;12.50;91.50;;;;;;4975136;28;20059;-68
2022/04/29 01:03:30;;;;;;;14.37;8.93;;;12.50;91.50;;;;;;4957262;28;20406;-68
2022/04/29 01:05:56;;;;;;;18.00;9.40;;;12.50;91.60;;;;;;4975044;28;20550;-68
2022/04/29 01:08:22;;;;;;;16.07;9.13;;;12.40;91.70;;;;;;4973503;28;20038;-68
2022/04/29 01:10:48;;;;;;;13.70;8.77;;;12.40;91.80;;;;;;4974566;28;20491;-68
2022/04/29 01:13:16;;;;;;;16.53;8.90;;;12.40;91.90;;;;;;4956861;28;20037;-67
2022/04/29 01:15:42;;;;;;;15.53;8.80;;;12.30;91.90;;;;;;4956970;28;20049;-67
2022/04/29 01:18:09;;;;;;;14.97;9.63;;;12.40;91.90;;;;;;4956731;28;20030;-68
2022/04/29 01:20:37;;;;;;;14.10;10.00;;;12.30;92.00;;;;;;4956800;28;20122;-68
2022/04/29 01:23:08;;;;;;;20.63;9.97;;;12.30;92.00;;;;;;4974179;28;20027;-67
2022/04/29 01:25:37;;;;;;;15.80;9.00;;;12.30;92.10;;;;;;4956796;28;20575;-68
2022/04/29 01:28:03;;;;;;;17.40;8.90;;;12.30;92.10;;;;;;4956637;28;20023;-67
2022/04/29 01:30:31;;;;;;;16.67;9.10;;;12.30;92.20;;;;;;4974176;28;20067;-68
2022/04/29 01:32:59;;;;;;;15.93;9.93;;;12.30;92.20;;;;;;4973928;28;20029;-68
2022/04/29 01:35:25;;;;;;;15.53;9.47;;;12.30;92.30;;;;;;4956608;28;20034;-67
2022/04/29 01:37:51;;;;;;;14.33;9.10;;;12.30;92.30;;;;;;4973803;28;20096;-68
2022/04/29 01:40:18;;;;;;;17.57;10.20;;;12.20;92.40;;;;;;4956564;28;20027;-67
2022/04/29 01:42:44;;;;;;;15.13;9.63;;;12.30;92.50;;;;;;4956431;28;20038;-67
2022/04/29 01:45:11;;;;;;;15.67;9.13;;;12.20;92.60;;;;;;4973810;28;20440;-68
2022/04/29 01:48:13;;;;;;;17.73;9.80;;;12.20;92.60;;;;;;4894791;29;20085;-67
2022/04/29 01:50:50;;;;;;;18.43;9.40;;;12.10;92.60;;;;;;4946211;28;20530;-67
2022/04/29 01:53:16;;;;;;;19.10;9.03;;;12.10;92.90;;;;;;4956233;28;20039;-68
2022/04/29 01:55:42;;;;;;;14.83;9.50;;;12.10;92.70;;;;;;4956256;28;20034;-67
2022/04/29 01:58:08;;;;;;;16.90;9.50;;;12.10;92.80;;;;;;4956225;28;20039;-67
2022/04/29 02:00:35;;;;;;;17.67;9.27;;;12.00;92.80;;;;;;4956208;28;20045;-67
2022/04/29 02:03:01;;;;;;;20.30;9.43;;;12.00;92.80;;;;;;4956035;28;20117;-67
2022/04/29 02:05:27;;;;;;;19.57;9.47;;;12.00;93.00;;;;;;4956208;28;20510;-67
2022/04/29 02:07:53;;;;;;;19.87;9.83;;;12.00;93.00;;;;;;4956052;28;20045;-68
2022/04/29 02:10:20;;;;;;;16.03;9.53;;;12.00;93.00;;;;;;4955887;28;20574;-67
2022/04/29 02:12:48;;;;;;;15.02;8.35;;;11.80;92.90;;;;;;4955921;28;20446;-68
2022/04/29 02:15:37;;;;;;;;;;;11.80;93.10;;;;;;4956550;28;20098;-68
2022/04/29 02:18:05;;;;;;;20.87;10.00;;;11.80;93.10;;;;;;4955638;28;19921;-68
2022/04/29 02:20:31;;;;;;;17.80;10.77;;;11.70;93.20;;;;;;4973006;28;20022;-67
2022/04/29 02:22:57;;;;;;;15.27;9.20;;;11.70;93.30;;;;;;4955532;28;20447;-67
2022/04/29 02:25:23;;;;;;;22.03;9.77;;;11.70;93.30;;;;;;4955665;28;20088;-68
2022/04/29 02:27:49;;;;;;;14.87;8.67;;;11.70;93.40;;;;;;4973028;28;20026;-67
2022/04/29 02:30:15;;;;;;;15.03;8.63;;;11.70;93.30;;;;;;4955704;28;20050;-67
2022/04/29 02:32:43;;;;;;;17.07;9.00;;;11.70;93.30;;;;;;4955459;28;20039;-67
2022/04/29 02:35:09;;;;;;;19.63;9.10;;;11.70;93.30;;;;;;4973000;28;20306;-68
2022/04/29 02:37:35;;;;;;;15.63;8.10;;;11.70;93.50;;;;;;4972470;28;20038;-67
2022/04/29 02:40:01;;;;;;;15.80;7.50;;;11.60;93.40;;;;;;4972811;28;20030;-67
2022/04/29 02:42:30;;;;;;;14.77;8.23;;;11.60;93.40;;;;;;4955567;28;20117;-67
2022/04/29 02:44:56;;;;;;;16.17;7.83;;;11.60;93.50;;;;;;4955360;28;20483;-67
2022/04/29 02:47:24;;;;;;;15.77;7.93;;;11.50;93.50;;;;;;4955211;28;20050;-67
2022/04/29 02:49:50;;;;;;;16.53;8.10;;;11.50;93.60;;;;;;4972578;28;20035;-67
2022/04/29 02:52:16;;;;;;;15.13;7.73;;;11.40;93.60;;;;;;4972773;28;20053;-67
2022/04/29 02:54:43;;;;;;;14.97;7.27;;;11.40;93.70;;;;;;4955278;28;20035;-67
2022/04/29 02:57:32;;;;;;;;;;;11.40;93.70;;;;;;4953485;28;20085;-67
2022/04/29 02:59:59;;;;;;;15.47;7.10;;;11.40;93.60;;;;;;4955284;28;19910;-68
2022/04/29 03:02:26;;;;;;;12.63;7.37;;;11.40;93.60;;;;;;4939020;28;20027;-67
2022/04/29 03:04:52;;;;;;;13.23;7.27;;;11.40;93.60;;;;;;4955226;28;20266;-68
2022/04/29 03:07:18;;;;;;;12.63;6.97;;;11.40;93.70;;;;;;4972364;28;20041;-67
2022/04/29 03:09:50;;;;;;;13.27;6.57;;;11.30;93.70;;;;;;4955075;28;20118;-67
2022/04/29 03:12:19;;;;;;;12.07;6.63;;;11.40;93.70;;;;;;4954954;28;20042;-67
2022/04/29 03:14:51;;;;;;;11.77;6.70;;;11.40;93.80;;;;;;4954927;28;20404;-67
2022/04/29 03:20:04;;;;;;;12.60;6.63;;;11.30;93.70;;;;;;4954998;28;20117;-68
2022/04/29 03:22:30;;;;;;;13.97;6.20;;;11.30;93.80;;;;;;4954776;28;20031;-68
2022/04/29 03:24:56;;;;;;;13.00;6.67;;;11.30;93.80;;;;;;4954966;28;20041;-68
2022/04/29 03:27:22;;;;;;;14.30;6.77;;;11.30;93.80;;;;;;4954586;28;20031;-67
2022/04/29 03:29:48;;;;;;;9.53;6.23;;;11.30;93.70;;;;;;4954849;28;20058;-67
2022/04/29 03:32:15;;;;;;;11.50;6.70;;;11.30;93.80;;;;;;4957888;28;20031;-67
2022/04/29 03:35:04;;;;;;;18.30;6.75;;;11.30;93.60;;;;;;4961147;28;20038;-67
2022/04/29 03:37:31;;;;;;;14.70;7.53;;;11.20;93.60;;;;;;4961009;28;20042;-67
2022/04/29 03:39:57;;;;;;;16.30;6.70;;;11.10;93.70;;;;;;4961157;28;20023;-67
2022/04/29 03:42:24;;;;;;;12.13;6.47;;;11.10;93.80;;;;;;4961094;28;20058;-67
2022/04/29 03:44:52;;;;;;;12.03;7.27;;;11.10;94.20;;;;;;4961268;28;20507;-68
2022/04/29 03:47:20;;;;;;;11.07;6.40;;;11.10;93.90;;;;;;4960981;28;20491;-68
2022/04/29 03:49:57;;;;;;;16.20;7.00;;;11.10;93.80;;;;;;4961134;28;20574;-67
2022/04/29 03:52:24;;;;;;;11.77;6.13;;;11.10;94.00;;;;;;4961118;28;20109;-67
2022/04/29 03:54:56;;;;;;;16.58;6.78;;;11.10;93.90;;;;;;4960897;28;20031;-67
2022/04/29 03:57:23;;;;;;;13.63;6.87;;;11.10;93.90;;;;;;4960825;28;20034;-67
2022/04/29 03:59:49;;;;;;;13.70;6.60;;;11.10;93.90;;;;;;4978394;28;20568;-67
2022/04/29 04:02:17;;;;;;;13.43;6.60;;;11.10;93.80;;;;;;4960941;28;20027;-67
2022/04/29 04:04:46;;;;;;;12.40;6.30;;;11.10;93.70;;;;;;4961004;28;20035;-67
2022/04/29 04:07:13;;;;;;;15.27;7.17;;;11.00;93.80;;;;;;4960843;28;20467;-67
2022/04/29 04:09:48;;;;;;;14.53;6.80;;;11.00;93.90;;;;;;4960816;28;20031;-67
2022/04/29 04:12:14;;;;;;;12.60;6.87;;;11.00;93.90;;;;;;4960857;28;20510;-67
2022/04/29 04:15:03;;;;;;;19.48;7.22;;;11.00;93.90;;;;;;4975862;28;20123;-67
2022/04/29 04:17:36;;;;;;;13.77;7.07;;;11.00;93.90;;;;;;4960677;28;20031;-68
2022/04/29 04:20:04;;;;;;;18.17;7.13;;;10.90;93.90;;;;;;4961118;28;20118;-68
2022/04/29 04:22:40;;;;;;;13.63;6.80;;;11.00;93.90;;;;;;4946214;28;20031;-68
2022/04/29 04:25:12;;;;;;;18.23;7.40;;;11.00;94.00;;;;;;4960972;28;20031;-69
2022/04/29 04:27:38;;;;;;;17.30;7.73;;;10.90;93.90;;;;;;4944704;28;20118;-68
2022/04/29 04:30:05;;;;;;;18.67;7.43;;;10.90;94.00;;;;;;4960988;28;20399;-69
2022/04/29 04:32:37;;;;;;;12.53;6.90;;;10.80;94.10;;;;;;4961114;28;20477;-69
2022/04/29 04:35:04;;;;;;;14.33;7.27;;;10.80;94.30;;;;;;4960816;28;20038;-68
2022/04/29 04:37:32;;;;;;;16.20;7.53;;;10.80;94.30;;;;;;4960498;28;20069;-68
2022/04/29 04:40:00;;;;;;;14.07;6.97;;;10.80;94.30;;;;;;4960611;28;20027;-68
2022/04/29 04:42:45;;;;;;;13.97;7.17;;;10.80;94.20;;;;;;4960548;28;20054;-67
2022/04/29 04:45:12;;;;;;;12.00;6.77;;;10.90;94.30;;;;;;4957631;28;20035;-67
2022/04/29 04:47:53;;;;;;;15.10;7.60;;;10.90;94.20;;;;;;4957401;28;20034;-67
2022/04/29 04:50:51;;;;;;;14.32;7.47;;;10.80;94.20;;;;;;4942013;28;20026;-67
2022/04/29 04:53:19;;;;;;;16.23;7.30;;;10.70;94.20;;;;;;4957764;28;20054;-67
2022/04/29 04:55:45;;;;;;;12.70;7.77;;;10.80;94.40;;;;;;4957442;28;20419;-67
2022/04/29 04:58:11;;;;;;;15.00;7.37;;;10.80;94.40;;;;;;4957209;28;20158;-67
2022/04/29 05:00:39;;;;;;;18.73;7.60;;;10.80;94.40;;;;;;4957389;28;20395;-67
2022/04/29 05:03:23;;;;;;;14.63;7.37;;;10.80;94.40;;;;;;4974861;28;20053;-67
2022/04/29 05:06:09;;;;;;;15.97;7.27;;;10.80;94.40;;;;;;4963991;28;20065;-68
2022/04/29 05:08:35;;;;;;;16.87;6.93;;;10.80;94.50;;;;;;4974420;28;20027;-66
2022/04/29 05:11:01;;;;;;;16.87;7.53;;;10.90;94.40;;;;;;4957188;28;20030;-67
2022/04/29 05:13:27;;;;;;;13.87;7.50;;;10.80;94.40;;;;;;4957480;28;20030;-67
2022/04/29 05:15:53;;;;;;;16.90;7.63;;;10.80;94.40;;;;;;4956899;28;20031;-67
2022/04/29 05:18:28;;;;;;;23.23;9.07;;;10.80;94.30;;;;;;4957153;28;20458;-67
2022/04/29 05:21:05;;;;;;;17.10;8.10;;;10.80;94.40;;;;;;4974634;28;20113;-67
2022/04/29 05:23:31;;;;;;;26.73;8.40;;;10.80;94.30;;;;;;4957043;28;20312;-67
2022/04/29 05:26:17;;;;;;;19.63;8.40;;;10.90;94.10;;;;;;4959556;28;20027;-69
2022/04/29 05:29:09;;;;;;;17.40;8.17;;;10.90;94.20;;;;;;4944227;28;20043;-67
2022/04/29 05:31:53;;;;;;;17.77;8.47;;;10.90;94.30;;;;;;4974848;28;20510;-67
2022/04/29 05:34:56;;;;;;;13.70;7.47;;;10.90;94.40;;;;;;4914174;29;20047;-67
2022/04/29 05:37:41;;;;;;;17.33;7.93;;;11.00;94.20;;;;;;4984254;22;20061;-71
2022/04/29 05:43:07;;;;;;;18.40;9.00;;;11.00;94.30;;;;;;4941433;28;20058;-71
2022/04/29 05:45:33;;;;;;;20.30;8.10;;;11.10;94.20;;;;;;4973879;28;20398;-71
2022/04/29 05:47:59;;;;;;;20.73;8.73;;;11.10;94.00;;;;;;4973630;28;20031;-71
2022/04/29 05:50:29;;;;;;;;;;;11.10;94.00;;;;;;4956941;28;20513;-71
2022/04/29 05:52:55;;;;;;;17.07;8.00;;;11.10;94.10;;;;;;4956473;28;20374;-71
2022/04/29 05:55:22;;;;;;;16.83;8.43;;;11.10;94.00;;;;;;4955695;28;20034;-71
2022/04/29 05:57:49;;;;;;;16.80;8.40;;;11.20;94.00;;;;;;4956038;28;20031;-71
2022/04/29 06:00:16;;;;;;;21.47;7.97;;;11.10;93.80;;;;;;4956341;28;20049;-71
2022/04/29 06:02:47;;;;;;;16.67;8.50;;;11.10;94.00;;;;;;4956230;28;20030;-71
2022/04/29 06:05:21;;;;;;;15.70;7.50;;;11.20;94.00;;;;;;4956243;28;20034;-71
2022/04/29 06:07:47;;;;;;;15.90;8.60;;;11.20;93.90;;;;;;4955788;28;20097;-71
2022/04/29 06:10:43;;;;;;;15.87;9.03;;;11.20;93.90;;;;;;4961328;28;20086;-71
2022/04/29 06:13:10;;;;;;;16.57;7.80;;;11.20;94.00;;;;;;4956001;28;20031;-71
2022/04/29 06:15:59;;;;;;;17.77;9.40;;;11.30;94.00;;;;;;4973247;28;20492;-71
2022/04/29 06:18:43;;;;;;;17.23;9.73;;;11.30;94.00;;;;;;4973452;28;20081;-71
2022/04/29 06:21:45;;;;;;;17.43;8.83;;;11.30;93.80;;;;;;4913518;29;20044;-71
2022/04/29 06:24:17;;;;;;;20.77;9.60;;;11.30;93.90;;;;;;4946181;28;20038;-71
2022/04/29 06:26:43;;;;;;;16.97;8.80;;;11.30;93.80;;;;;;4955638;28;20027;-71
2022/04/29 06:29:10;;;;;;;20.07;8.77;;;11.30;93.90;;;;;;4939943;28;20030;-71
2022/04/29 06:31:37;;;;;;;15.93;8.20;;;11.30;94.00;;;;;;4973148;28;20031;-71
2022/04/29 06:34:21;;;;;;;19.00;8.73;;;11.30;94.00;;;;;;4973248;28;20510;-71
2022/04/29 06:36:47;;;;;;;27.07;8.77;;;11.30;94.00;;;;;;4955217;28;20031;-71
2022/04/29 06:39:13;;;;;;;18.90;9.53;;;11.40;94.10;;;;;;4955601;28;20031;-71
2022/04/29 06:42:08;;;;;;;16.43;8.80;;;11.40;94.20;;;;;;4963931;28;20037;-71
2022/04/29 06:45:10;;;;;;;19.60;9.67;;;11.40;94.10;;;;;;4932140;29;20404;-71
2022/04/29 06:47:55;;;;;;;21.33;9.73;;;11.50;94.20;;;;;;4969519;28;20050;-72
2022/04/29 06:50:33;;;;;;;18.47;9.73;;;11.50;94.20;;;;;;4973251;28;20039;-71
2022/04/29 06:53:17;;;;;;;24.13;10.33;;;11.60;94.20;;;;;;4973462;28;20041;-71
2022/04/29 06:55:43;;;;;;;17.57;9.13;;;11.70;94.00;;;;;;4955787;28;20360;-71
2022/04/29 06:58:09;;;;;;;16.13;9.30;;;11.80;93.80;;;;;;4955496;28;20045;-71
2022/04/29 07:00:39;;;;;;;16.97;8.20;;;11.80;93.80;;;;;;4955829;28;20027;-71
2022/04/29 07:03:05;;;;;;;20.27;10.07;;;11.90;93.70;;;;;;4955635;28;20109;-71
2022/04/29 07:05:32;;;;;;;21.27;10.90;;;12.00;93.50;;;;;;4955769;28;20097;-71
2022/04/29 07:08:03;;;;;;;21.27;10.53;;;12.00;93.30;;;;;;4954638;28;20488;-71
2022/04/29 07:10:48;;;;;;;20.73;9.63;;;12.10;93.30;;;;;;4973030;28;20046;-71
2022/04/29 07:13:32;;;;;;;22.87;9.73;;;12.10;93.30;;;;;;4973101;28;20046;-71
2022/04/29 07:15:59;;;;;;;17.80;9.43;;;12.20;93.20;;;;;;4939800;28;20488;-71
2022/04/29 07:18:44;;;;;;;21.83;10.17;;;12.30;93.30;;;;;;4972774;28;20066;-72
2022/04/29 07:21:12;;;;;;;16.93;8.93;;;12.40;93.20;;;;;;4955294;28;20085;-71
2022/04/29 07:23:38;;;;;;;23.17;10.00;;;12.40;93.10;;;;;;4955560;28;20042;-71
2022/04/29 07:26:04;;;;;;;24.30;10.07;;;12.40;92.80;;;;;;4955337;28;20030;-71
2022/04/29 07:28:31;;;;;;;16.33;9.03;;;12.50;92.70;;;;;;4955213;28;20035;-71
2022/04/29 07:30:57;;;;;;;17.37;9.60;;;12.40;92.90;;;;;;4955510;28;20031;-71
2022/04/29 07:33:46;;;;;;;18.38;9.88;;;12.40;93.00;;;;;;4972624;28;20505;-71
2022/04/29 07:42:00;;;;;;;23.13;10.73;;;12.40;92.90;;;;;;4955016;28;20403;-71
2022/04/29 07:44:31;;;;;;;18.47;9.97;;;12.40;92.90;;;;;;4955229;28;20049;-71
2022/04/29 07:46:58;;;;;;;20.03;9.90;;;12.40;93.30;;;;;;4955281;28;20065;-71
2022/04/29 07:49:46;;;;;;;20.53;10.63;;;12.40;93.40;;;;;;4955210;28;20038;-71
2022/04/29 07:52:17;;;;;;;19.13;9.20;;;12.40;93.40;;;;;;4955235;28;20031;-71
2022/04/29 07:54:43;;;;;;;17.20;9.87;;;12.40;93.50;;;;;;4955175;28;20062;-71
2022/04/29 07:57:09;;;;;;;24.47;9.70;;;12.40;93.40;;;;;;4955139;28;20069;-71
2022/04/29 07:59:35;;;;;;;20.90;10.50;;;12.40;93.60;;;;;;4955173;28;20027;-71
2022/04/29 08:02:22;;;;;;;18.63;9.50;;;12.40;93.50;;;;;;4971891;28;20087;-71
2022/04/29 08:04:48;;;;;;;18.80;9.30;;;12.50;93.70;;;;;;4955255;28;20559;-71
2022/04/29 08:07:14;;;;;;;18.50;10.40;;;12.40;93.50;;;;;;4954962;28;20395;-71
2022/04/29 08:09:41;;;;;;;22.27;10.77;;;12.50;93.40;;;;;;4972461;28;20026;-71
2022/04/29 08:12:11;;;;;;;25.90;11.40;;;12.50;93.30;;;;;;4955010;28;20234;-71
2022/04/29 08:14:38;;;;;;;18.53;10.77;;;12.50;93.30;;;;;;4972351;28;20039;-71
2022/04/29 08:17:27;;;;;;;52.90;12.20;;;12.50;93.60;;;;;;4944393;28;20035;-71
2022/04/29 08:19:53;;;;;;;34.03;10.63;;;12.50;93.40;;;;;;4976006;28;20027;-71
2022/04/29 08:22:23;;;;;;;23.53;10.77;;;12.50;93.30;;;;;;4958713;28;20030;-71
2022/04/29 08:24:51;;;;;;;18.03;9.97;;;12.60;93.40;;;;;;4958558;28;20089;-71
2022/04/29 08:27:17;;;;;;;17.63;9.40;;;12.60;93.20;;;;;;4958241;28;20031;-71
2022/04/29 08:29:43;;;;;;;18.03;9.77;;;12.60;93.20;;;;;;4958260;28;20034;-71
2022/04/29 08:32:09;;;;;;;21.80;9.90;;;12.60;93.50;;;;;;4958306;28;20554;-71
2022/04/29 08:34:39;;;;;;;20.40;10.27;;;12.70;93.10;;;;;;4958294;28;20054;-71
2022/04/29 08:37:05;;;;;;;28.50;11.57;;;12.70;92.90;;;;;;4958070;28;20042;-71
2022/04/29 08:39:37;;;;;;;23.67;10.83;;;12.70;93.00;;;;;;4957993;28;20031;-71
2022/04/29 08:42:04;;;;;;;39.47;12.10;;;12.70;93.10;;;;;;4958055;28;20034;-71
2022/04/29 08:44:33;;;;;;;25.90;10.70;;;12.80;93.10;;;;;;4958264;28;20472;-71
2022/04/29 08:47:17;;;;;;;26.37;10.90;;;12.70;93.00;;;;;;4975741;28;20046;-71
2022/04/29 08:49:55;;;;;;;19.17;10.33;;;12.80;93.10;;;;;;4958086;28;20035;-71
2022/04/29 08:52:21;;;;;;;25.80;10.70;;;12.80;92.90;;;;;;4975289;28;20023;-71
2022/04/29 09:00:25;;;;;;;22.30;10.70;;;13.00;92.90;;;;;;4975380;28;20031;-71
2022/04/29 09:02:51;;;;;;;22.67;11.07;;;13.00;92.80;;;;;;4957982;28;20034;-71
2022/04/29 09:05:17;;;;;;;19.37;10.03;;;13.10;93.00;;;;;;4975057;28;20037;-71
2022/04/29 09:07:56;;;;;;;28.10;11.60;;;13.20;92.70;;;;;;4974922;28;20030;-71
2022/04/29 09:10:24;;;;;;;21.05;10.82;;;13.30;92.60;;;;;;4957961;28;20400;-71
2022/04/29 09:12:52;;;;;;;20.93;9.97;;;13.30;92.80;;;;;;4957906;28;20039;-71
2022/04/29 09:15:19;;;;;;;21.10;10.73;;;13.40;92.90;;;;;;4974734;28;20030;-71
2022/04/29 09:17:46;;;;;;;26.27;10.98;;;13.40;92.70;;;;;;4974768;28;20033;-71
2022/04/29 09:20:21;;;;;;;22.08;10.57;;;13.50;92.70;;;;;;4974878;28;20054;-71
2022/04/29 09:22:52;;;;;;;30.02;11.68;;;13.50;92.10;;;;;;4975014;28;20400;-71
2022/04/29 09:25:44;;;;;;;17.73;9.53;;;13.40;92.30;;;;;;4946059;28;20074;-71
2022/04/29 09:28:47;;;;;;;16.38;9.65;;;13.50;92.50;;;;;;4957133;28;20578;-71
2022/04/29 09:31:19;;;;;;;14.63;8.83;;;13.60;92.40;;;;;;4956802;28;20062;-71
2022/04/29 09:34:24;;;;;;;25.97;11.37;;;13.60;92.50;;;;;;4974273;28;20069;-71
2022/04/29 09:37:14;;;;;;;23.80;10.07;;;13.70;92.20;;;;;;4956880;28;20389;-71
2022/04/29 09:39:57;;;;;;;18.45;9.88;;;13.80;92.30;;;;;;4974747;28;20031;-71
2022/04/29 09:42:23;;;;;;;21.08;9.77;;;13.80;92.10;;;;;;4974565;28;20035;-71
2022/04/29 09:44:50;;;;;;;25.67;11.07;;;13.80;91.90;;;;;;4957252;28;20038;-71
2022/04/29 09:47:20;;;;;;;18.20;9.75;;;13.80;92.00;;;;;;4974335;28;20539;-71
2022/04/29 09:49:59;;;;;;;22.52;10.15;;;13.90;92.10;;;;;;4974315;28;20377;-71
2022/04/29 09:52:26;;;;;;;16.85;10.10;;;13.90;92.10;;;;;;4974324;28;20039;-71
2022/04/29 09:54:52;;;;;;;23.05;10.52;;;13.90;92.20;;;;;;4974253;28;20049;-71
2022/04/29 09:57:23;;;;;;;23.33;10.35;;;13.90;92.40;;;;;;4973912;28;20029;-71
2022/04/29 09:59:54;;;;;;;23.48;10.63;;;13.90;92.20;;;;;;4973938;28;20074;-71
2022/04/29 10:02:23;;;;;;;20.42;10.63;;;13.90;92.00;;;;;;4973964;28;20026;-71
2022/04/29 10:04:54;;;;;;;21.15;10.40;;;13.90;92.00;;;;;;4956821;28;20042;-71
2022/04/29 10:07:22;;;;;;;22.15;10.60;;;13.90;92.00;;;;;;4974162;28;20101;-71
2022/04/29 10:09:55;;;;;;;25.85;9.73;;;13.90;92.30;;;;;;4956642;28;20081;-71
2022/04/29 10:12:27;;;;;;;21.55;9.65;;;13.90;92.10;;;;;;4973768;28;20077;-71
2022/04/29 10:15:20;;;;;;;23.23;12.15;;;14.00;92.10;;;;;;4943594;28;20043;-71
2022/04/29 10:23:32;;;;;;;17.13;9.00;;;14.10;92.20;;;;;;4973807;28;20034;-71
2022/04/29 10:25:58;;;;;;;17.20;8.65;;;14.10;91.50;;;;;;4973705;28;20058;-71
2022/04/29 10:28:25;;;;;;;18.92;9.55;;;14.20;91.60;;;;;;4973520;28;20080;-71
2022/04/29 10:31:03;;;;;;;18.75;8.85;;;14.20;91.60;;;;;;4956422;28;20027;-71
2022/04/29 10:33:29;;;;;;;21.13;10.00;;;14.20;91.70;;;;;;4956136;28;20027;-71
2022/04/29 10:36:04;;;;;;;21.08;9.40;;;14.20;91.60;;;;;;4973316;28;20345;-71
2022/04/29 10:38:34;;;;;;;15.20;8.13;;;14.20;91.80;;;;;;4973086;28;20400;-71
2022/04/29 10:41:06;;;;;;;16.85;8.20;;;14.20;91.70;;;;;;4973327;28;20027;-71
2022/04/29 10:43:40;;;;;;;19.55;7.03;;;14.30;91.20;;;;;;4973338;28;20118;-71
2022/04/29 10:46:06;;;;;;;13.85;6.80;;;14.30;91.10;;;;;;4973230;28;20059;-71
2022/04/29 10:48:43;;;;;;;14.23;6.68;;;14.30;90.80;;;;;;4955807;28;20118;-71
2022/04/29 10:51:28;;;;;;;14.95;7.00;;;14.30;91.10;;;;;;4972788;28;20056;-71
2022/04/29 10:54:40;;;;;;;15.65;6.22;;;14.40;91.10;;;;;;4965013;28;20532;-71
2022/04/29 10:57:40;;;;;;;14.60;6.90;;;14.50;90.70;;;;;;4958366;28;20081;-71
2022/04/29 11:00:13;;;;;;;13.68;6.47;;;14.50;90.40;;;;;;4973078;28;20042;-71
2022/04/29 11:02:40;;;;;;;14.57;7.22;;;14.50;90.50;;;;;;4972763;28;20114;-72
2022/04/29 11:05:07;;;;;;;12.80;6.00;;;14.60;90.30;;;;;;4955689;28;20119;-71
2022/04/29 11:07:36;;;;;;;18.25;6.65;;;14.60;90.30;;;;;;4939191;28;20066;-71
2022/04/29 11:10:06;;;;;;;17.08;7.00;;;14.60;90.30;;;;;;4972910;28;20411;-71
2022/04/29 11:12:34;;;;;;;19.90;6.70;;;14.60;90.10;;;;;;4955472;28;20038;-71
2022/04/29 11:15:21;;;;;;;16.05;7.53;;;14.70;90.00;;;;;;4958455;28;20050;-71
2022/04/29 11:18:40;;;;;;;12.90;6.55;;;14.70;90.10;;;;;;4941364;28;20131;-71
2022/04/29 11:26:50;;;;;;;19.48;6.93;;;14.80;90.10;;;;;;4954960;28;20110;-71
2022/04/29 11:29:18;;;;;;;13.88;6.03;;;14.80;90.20;;;;;;4955033;28;20035;-71
2022/04/29 11:31:46;;;;;;;13.20;6.15;;;14.90;90.40;;;;;;4972454;28;20027;-71
2022/04/29 11:34:15;;;;;;;16.55;6.63;;;14.90;90.50;;;;;;4954903;28;20121;-71
2022/04/29 11:39:17;;;;;;;14.73;6.40;;;15.00;89.60;;;;;;4894222;29;20049;-67
2022/04/29 11:41:59;;;;;;;16.17;7.43;;;15.00;89.70;;;;;;4895998;29;20116;-67
2022/04/29 11:44:43;;;;;;;14.48;6.32;;;14.90;90.10;;;;;;4879299;29;20473;-67
2022/04/29 11:47:09;;;;;;;16.85;7.45;;;15.00;89.60;;;;;;4895952;29;20394;-67
2022/04/29 11:49:41;;;;;;;13.30;6.35;;;15.00;89.40;;;;;;4879417;29;20370;-67
2022/04/29 11:52:30;;;;;;;14.63;6.45;;;15.10;88.50;;;;;;4895911;29;20048;-67
2022/04/29 11:55:05;;;;;;;16.65;7.60;;;15.10;86.90;;;;;;4899820;29;20115;-68
2022/04/29 11:57:42;;;;;;;19.15;6.70;;;15.10;87.20;;;;;;4899505;29;20068;-67
2022/04/29 12:00:09;;;;;;;12.48;6.45;;;15.00;86.70;;;;;;4899797;29;20028;-67
2022/04/29 12:02:46;;;;;;;18.10;6.28;;;15.00;87.10;;;;;;4899768;29;20406;-67
2022/04/29 12:05:13;;;;;;;13.82;6.03;;;15.10;87.50;;;;;;4899701;29;20035;-67
2022/04/29 12:07:43;;;;;;;11.73;5.10;;;15.10;87.50;;;;;;4899347;29;20036;-67
2022/04/29 12:10:16;;;;;;;13.85;6.10;;;15.20;86.60;;;;;;4882960;29;20036;-67
2022/04/29 12:12:42;;;;;;;13.52;5.47;;;15.30;86.00;;;;;;4899437;29;20037;-67
2022/04/29 12:15:10;;;;;;;11.10;5.22;;;15.40;86.00;;;;;;4899611;29;20035;-67
2022/04/29 12:17:41;;;;;;;12.25;6.32;;;15.40;85.40;;;;;;4882706;29;20033;-67
2022/04/29 12:20:09;;;;;;;16.38;6.07;;;15.40;83.50;;;;;;4882678;29;20124;-68
2022/04/29 12:22:38;;;;;;;9.43;5.30;;;15.30;83.70;;;;;;4899394;29;20430;-68
2022/04/29 12:25:18;;;;;;;;;;;15.30;82.70;;;;;;4899788;29;20269;-67
2022/04/29 12:27:44;;;;;;;10.05;5.40;;;15.30;82.80;;;;;;4898953;29;19911;-67
2022/04/29 12:36:12;;;;;;;14.57;6.43;;;15.40;82.80;;;;;;4899496;29;20040;-67
2022/04/29 12:38:39;;;;;;;13.20;5.90;;;15.40;83.00;;;;;;4899125;29;20029;-67
2022/04/29 12:41:23;;;;;;;11.57;5.13;;;15.40;83.40;;;;;;4899587;29;20036;-67
2022/04/29 12:43:51;;;;;;;12.25;6.07;;;15.50;83.90;;;;;;4899463;29;20165;-67
2022/04/29 12:46:21;;;;;;;10.55;5.65;;;15.50;83.70;;;;;;4899939;29;20471;-67
2022/04/29 12:48:49;;;;;;;13.75;6.32;;;15.50;83.10;;;;;;4899290;29;20402;-67
2022/04/29 12:51:24;;;;;;;12.40;5.53;;;15.50;83.20;;;;;;4899406;29;20029;-68
2022/04/29 12:53:53;;;;;;;14.43;6.03;;;15.50;84.10;;;;;;4899269;29;20056;-67
2022/04/29 12:56:33;;;;;;;12.25;6.07;;;15.50;84.10;;;;;;4898917;29;20028;-68
2022/04/29 12:59:00;;;;;;;14.18;6.13;;;15.50;84.20;;;;;;4898900;29;20165;-67
2022/04/29 13:01:38;;;;;;;20.27;6.63;;;15.50;84.10;;;;;;4882080;29;20028;-67
2022/04/29 13:04:11;;;;;;;14.57;6.18;;;15.40;84.10;;;;;;4881284;29;20043;-68
2022/04/29 13:06:51;;;;;;;14.57;6.47;;;15.40;83.80;;;;;;4898795;29;20211;-67
2022/04/29 13:09:17;;;;;;;12.18;6.80;;;15.40;83.90;;;;;;4899054;29;20036;-67
2022/04/29 13:11:44;;;;;;;14.50;6.72;;;15.40;84.70;;;;;;4899006;29;20051;-67
2022/04/29 13:14:17;;;;;;;13.27;6.38;;;15.30;84.20;;;;;;4881909;29;20494;-67
2022/04/29 13:16:44;;;;;;;13.10;6.75;;;15.20;84.60;;;;;;4898328;29;20111;-67
2022/04/29 13:19:13;;;;;;;10.15;6.10;;;15.20;85.00;;;;;;4898790;29;20040;-67
2022/04/29 13:21:39;;;;;;;16.85;7.65;;;15.20;85.40;;;;;;4899122;29;20091;-67
2022/04/29 13:24:07;;;;;;;15.20;7.38;;;15.20;85.30;;;;;;4866297;29;20037;-67
2022/04/29 13:26:41;;;;;;;15.45;7.00;;;15.20;85.90;;;;;;4867303;29;20037;-67
2022/04/29 13:29:08;;;;;;;13.98;7.53;;;15.10;86.30;;;;;;4898646;29;20040;-67
2022/04/29 13:31:34;;;;;;;12.20;6.63;;;15.10;86.60;;;;;;4898514;29;20111;-67
2022/04/29 13:34:00;;;;;;;14.50;7.47;;;15.10;86.80;;;;;;4881579;29;20462;-67
2022/04/29 13:36:26;;;;;;;11.38;7.35;;;15.10;87.00;;;;;;4898243;29;20497;-67